sensor_id;sensor_type;location;lat;lon;timestamp;P1;durP1;ratioP1;P2;durP2;ratioP2
4646;SDS011;2336;47.822;7.564;2023-01-04T00:01:25;12.70;;;11.40;;
4646;SDS011;2336;47.822;7.564;2023-01-04T00:03:51;12.63;;;11.33;;
4646;SDS011;2336;47.822;7.564;2023-01-04T00:06:18;17.40;;;13.40;;
4646;SDS011;2336;47.822;7.564;2023-01-04T00:08:45;18.70;;;14.07;;
4646;SDS011;2336;47.822;7.564;2023-01-04T00:11:14;17.57;;;14.20;;
4646;SDS011;2336;47.822;7.564;2023-01-04T00:13:42;18.23;;;14.00;;
4646;SDS011;2336;47.822;7.564;2023-01-04T00:16:12;13.63;;;12.10;;
4646;SDS011;2336;47.822;7.564;2023-01-04T00:18:40;16.90;;;13.93;;
4646;SDS011;2336;47.822;7.564;2023-01-04T00:21:08;22.53;;;15.00;;
4646;SDS011;2336;47.822;7.564;2023-01-04T00:23:37;19.40;;;14.13;;
4646;SDS011;2336;47.822;7.564;2023-01-04T00:26:07;16.60;;;13.50;;
4646;SDS011;2336;47.822;7.564;2023-01-04T00:28:34;15.70;;;13.40;;
4646;SDS011;2336;47.822;7.564;2023-01-04T00:31:01;13.40;;;11.57;;
4646;SDS011;2336;47.822;7.564;2023-01-04T00:33:30;17.23;;;13.67;;
4646;SDS011;2336;47.822;7.564;2023-01-04T00:36:01;14.00;;;12.50;;
4646;SDS011;2336;47.822;7.564;2023-01-04T00:38:29;17.83;;;13.90;;
4646;SDS011;2336;47.822;7.564;2023-01-04T00:40:57;13.93;;;12.43;;
4646;SDS011;2336;47.822;7.564;2023-01-04T00:43:23;10.80;;;9.80;;
4646;SDS011;2336;47.822;7.564;2023-01-04T00:45:51;11.80;;;10.60;;
4646;SDS011;2336;47.822;7.564;2023-01-04T00:48:18;13.97;;;12.47;;
4646;SDS011;2336;47.822;7.564;2023-01-04T00:50:47;12.83;;;11.47;;
4646;SDS011;2336;47.822;7.564;2023-01-04T00:53:14;13.00;;;11.60;;
4646;SDS011;2336;47.822;7.564;2023-01-04T00:55:42;11.37;;;10.27;;
4646;SDS011;2336;47.822;7.564;2023-01-04T00:58:10;11.77;;;10.57;;
4646;SDS011;2336;47.822;7.564;2023-01-04T01:00:37;10.30;;;9.40;;
4646;SDS011;2336;47.822;7.564;2023-01-04T01:03:04;8.50;;;7.77;;
4646;SDS011;2336;47.822;7.564;2023-01-04T01:05:31;9.20;;;8.30;;
4646;SDS011;2336;47.822;7.564;2023-01-04T01:08:00;10.50;;;9.50;;
4646;SDS011;2336;47.822;7.564;2023-01-04T01:10:48;9.00;;;8.10;;
4646;SDS011;2336;47.822;7.564;2023-01-04T01:13:15;11.23;;;8.40;;
4646;SDS011;2336;47.822;7.564;2023-01-04T01:15:42;10.07;;;9.13;;
4646;SDS011;2336;47.822;7.564;2023-01-04T01:18:09;8.90;;;8.20;;
4646;SDS011;2336;47.822;7.564;2023-01-04T01:20:39;9.77;;;8.87;;
4646;SDS011;2336;47.822;7.564;2023-01-04T01:23:09;11.93;;;10.77;;
4646;SDS011;2336;47.822;7.564;2023-01-04T01:25:37;16.63;;;13.70;;
4646;SDS011;2336;47.822;7.564;2023-01-04T01:28:04;17.63;;;14.40;;
4646;SDS011;2336;47.822;7.564;2023-01-04T01:30:30;18.70;;;12.20;;
4646;SDS011;2336;47.822;7.564;2023-01-04T01:32:57;22.13;;;15.17;;
4646;SDS011;2336;47.822;7.564;2023-01-04T01:35:24;13.47;;;12.00;;
4646;SDS011;2336;47.822;7.564;2023-01-04T01:37:51;15.10;;;11.93;;
4646;SDS011;2336;47.822;7.564;2023-01-04T01:40:19;17.70;;;12.67;;
4646;SDS011;2336;47.822;7.564;2023-01-04T01:42:46;13.23;;;11.83;;
4646;SDS011;2336;47.822;7.564;2023-01-04T01:45:24;12.50;;;11.20;;
4646;SDS011;2336;47.822;7.564;2023-01-04T01:47:53;13.33;;;11.20;;
4646;SDS011;2336;47.822;7.564;2023-01-04T01:50:26;11.33;;;10.20;;
4646;SDS011;2336;47.822;7.564;2023-01-04T01:52:55;12.40;;;11.10;;
4646;SDS011;2336;47.822;7.564;2023-01-04T01:55:25;11.80;;;10.60;;
4646;SDS011;2336;47.822;7.564;2023-01-04T01:57:54;12.90;;;11.60;;
4646;SDS011;2336;47.822;7.564;2023-01-04T02:00:22;14.90;;;13.33;;
4646;SDS011;2336;47.822;7.564;2023-01-04T02:02:51;14.30;;;12.80;;
4646;SDS011;2336;47.822;7.564;2023-01-04T02:05:24;14.50;;;12.33;;
4646;SDS011;2336;47.822;7.564;2023-01-04T02:07:52;19.23;;;14.23;;
4646;SDS011;2336;47.822;7.564;2023-01-04T02:10:19;22.43;;;14.30;;
4646;SDS011;2336;47.822;7.564;2023-01-04T02:12:48;19.97;;;14.83;;
4646;SDS011;2336;47.822;7.564;2023-01-04T02:15:16;19.43;;;14.20;;
4646;SDS011;2336;47.822;7.564;2023-01-04T02:17:44;15.30;;;13.00;;
4646;SDS011;2336;47.822;7.564;2023-01-04T02:20:21;15.80;;;13.80;;
4646;SDS011;2336;47.822;7.564;2023-01-04T02:23:05;17.40;;;14.77;;
4646;SDS011;2336;47.822;7.564;2023-01-04T02:26:11;14.13;;;12.23;;
4646;SDS011;2336;47.822;7.564;2023-01-04T02:29:19;11.77;;;10.40;;
4646;SDS011;2336;47.822;7.564;2023-01-04T02:32:03;16.50;;;12.30;;
4646;SDS011;2336;47.822;7.564;2023-01-04T02:34:39;14.30;;;12.57;;
4646;SDS011;2336;47.822;7.564;2023-01-04T02:37:12;15.30;;;13.70;;
4646;SDS011;2336;47.822;7.564;2023-01-04T02:39:48;11.93;;;10.63;;
4646;SDS011;2336;47.822;7.564;2023-01-04T02:42:25;13.47;;;11.73;;
4646;SDS011;2336;47.822;7.564;2023-01-04T02:45:11;12.67;;;10.43;;
4646;SDS011;2336;47.822;7.564;2023-01-04T02:47:41;11.30;;;10.10;;
4646;SDS011;2336;47.822;7.564;2023-01-04T02:50:28;10.50;;;9.27;;
4646;SDS011;2336;47.822;7.564;2023-01-04T02:52:58;9.60;;;8.70;;
4646;SDS011;2336;47.822;7.564;2023-01-04T02:55:34;10.67;;;9.67;;
4646;SDS011;2336;47.822;7.564;2023-01-04T02:58:12;10.80;;;9.80;;
4646;SDS011;2336;47.822;7.564;2023-01-04T03:00:57;10.10;;;9.10;;
4646;SDS011;2336;47.822;7.564;2023-01-04T03:03:55;10.40;;;9.30;;
4646;SDS011;2336;47.822;7.564;2023-01-04T03:06:46;9.17;;;8.27;;
4646;SDS011;2336;47.822;7.564;2023-01-04T03:09:20;10.20;;;9.07;;
4646;SDS011;2336;47.822;7.564;2023-01-04T03:11:52;8.80;;;8.00;;
4646;SDS011;2336;47.822;7.564;2023-01-04T03:14:42;8.10;;;7.40;;
4646;SDS011;2336;47.822;7.564;2023-01-04T03:17:13;6.40;;;5.90;;
4646;SDS011;2336;47.822;7.564;2023-01-04T03:19:43;9.30;;;8.40;;
4646;SDS011;2336;47.822;7.564;2023-01-04T03:22:20;8.63;;;7.87;;
4646;SDS011;2336;47.822;7.564;2023-01-04T03:25:12;8.67;;;7.90;;
4646;SDS011;2336;47.822;7.564;2023-01-04T03:27:58;8.27;;;7.57;;
4646;SDS011;2336;47.822;7.564;2023-01-04T03:30:46;7.77;;;7.17;;
4646;SDS011;2336;47.822;7.564;2023-01-04T03:33:37;9.30;;;8.47;;
4646;SDS011;2336;47.822;7.564;2023-01-04T03:36:36;8.90;;;8.10;;
4646;SDS011;2336;47.822;7.564;2023-01-04T03:39:14;7.10;;;6.60;;
4646;SDS011;2336;47.822;7.564;2023-01-04T03:42:03;8.77;;;7.97;;
4646;SDS011;2336;47.822;7.564;2023-01-04T03:44:51;9.47;;;7.30;;
4646;SDS011;2336;47.822;7.564;2023-01-04T03:47:45;8.50;;;7.70;;
4646;SDS011;2336;47.822;7.564;2023-01-04T03:50:35;8.17;;;7.67;;
4646;SDS011;2336;47.822;7.564;2023-01-04T03:53:07;7.90;;;7.20;;
4646;SDS011;2336;47.822;7.564;2023-01-04T03:55:35;6.47;;;6.00;;
4646;SDS011;2336;47.822;7.564;2023-01-04T03:58:04;7.07;;;6.43;;
4646;SDS011;2336;47.822;7.564;2023-01-04T04:00:31;6.80;;;6.30;;
4646;SDS011;2336;47.822;7.564;2023-01-04T04:02:59;6.33;;;5.93;;
4646;SDS011;2336;47.822;7.564;2023-01-04T04:05:31;6.77;;;6.27;;
4646;SDS011;2336;47.822;7.564;2023-01-04T04:08:19;6.67;;;6.17;;
4646;SDS011;2336;47.822;7.564;2023-01-04T04:10:56;5.90;;;5.50;;
4646;SDS011;2336;47.822;7.564;2023-01-04T04:13:46;7.70;;;7.10;;
4646;SDS011;2336;47.822;7.564;2023-01-04T04:16:13;7.77;;;7.00;;
4646;SDS011;2336;47.822;7.564;2023-01-04T04:18:41;6.90;;;6.40;;
4646;SDS011;2336;47.822;7.564;2023-01-04T04:21:08;7.30;;;6.70;;
4646;SDS011;2336;47.822;7.564;2023-01-04T04:23:36;6.90;;;6.40;;
4646;SDS011;2336;47.822;7.564;2023-01-04T04:26:03;7.50;;;6.90;;
4646;SDS011;2336;47.822;7.564;2023-01-04T04:28:30;6.03;;;5.63;;
4646;SDS011;2336;47.822;7.564;2023-01-04T04:30:56;7.13;;;6.43;;
4646;SDS011;2336;47.822;7.564;2023-01-04T04:33:23;6.20;;;5.80;;
4646;SDS011;2336;47.822;7.564;2023-01-04T04:35:51;6.93;;;6.43;;
4646;SDS011;2336;47.822;7.564;2023-01-04T04:38:19;7.00;;;6.50;;
4646;SDS011;2336;47.822;7.564;2023-01-04T04:40:48;7.73;;;7.13;;
4646;SDS011;2336;47.822;7.564;2023-01-04T04:43:32;6.80;;;6.27;;
4646;SDS011;2336;47.822;7.564;2023-01-04T04:46:00;6.50;;;5.97;;
4646;SDS011;2336;47.822;7.564;2023-01-04T04:48:27;7.13;;;6.43;;
4646;SDS011;2336;47.822;7.564;2023-01-04T04:50:54;7.17;;;6.47;;
4646;SDS011;2336;47.822;7.564;2023-01-04T04:53:21;7.30;;;6.80;;
4646;SDS011;2336;47.822;7.564;2023-01-04T04:55:50;6.93;;;6.43;;
4646;SDS011;2336;47.822;7.564;2023-01-04T04:58:17;6.30;;;5.87;;
4646;SDS011;2336;47.822;7.564;2023-01-04T05:00:44;6.27;;;5.77;;
4646;SDS011;2336;47.822;7.564;2023-01-04T05:03:11;6.17;;;5.70;;
4646;SDS011;2336;47.822;7.564;2023-01-04T05:05:38;5.83;;;5.43;;
4646;SDS011;2336;47.822;7.564;2023-01-04T05:08:05;6.63;;;6.13;;
4646;SDS011;2336;47.822;7.564;2023-01-04T05:10:31;6.50;;;6.00;;
4646;SDS011;2336;47.822;7.564;2023-01-04T05:13:00;6.70;;;6.20;;
4646;SDS011;2336;47.822;7.564;2023-01-04T05:15:27;6.20;;;5.80;;
4646;SDS011;2336;47.822;7.564;2023-01-04T05:17:56;6.10;;;5.60;;
4646;SDS011;2336;47.822;7.564;2023-01-04T05:20:24;6.20;;;5.80;;
4646;SDS011;2336;47.822;7.564;2023-01-04T05:22:51;4.83;;;4.53;;
4646;SDS011;2336;47.822;7.564;2023-01-04T05:25:18;4.83;;;4.53;;
4646;SDS011;2336;47.822;7.564;2023-01-04T05:27:44;4.93;;;4.60;;
4646;SDS011;2336;47.822;7.564;2023-01-04T05:30:13;8.40;;;4.90;;
4646;SDS011;2336;47.822;7.564;2023-01-04T05:32:58;5.23;;;4.93;;
4646;SDS011;2336;47.822;7.564;2023-01-04T05:35:25;5.80;;;5.30;;
4646;SDS011;2336;47.822;7.564;2023-01-04T05:37:53;5.03;;;4.73;;
4646;SDS011;2336;47.822;7.564;2023-01-04T05:40:20;5.43;;;5.13;;
4646;SDS011;2336;47.822;7.564;2023-01-04T05:42:47;4.27;;;4.07;;
4646;SDS011;2336;47.822;7.564;2023-01-04T05:45:16;4.40;;;4.23;;
4646;SDS011;2336;47.822;7.564;2023-01-04T05:47:45;4.57;;;4.23;;
4646;SDS011;2336;47.822;7.564;2023-01-04T05:50:14;4.30;;;4.10;;
4646;SDS011;2336;47.822;7.564;2023-01-04T05:52:40;4.23;;;3.93;;
4646;SDS011;2336;47.822;7.564;2023-01-04T05:55:07;2.37;;;2.27;;
4646;SDS011;2336;47.822;7.564;2023-01-04T05:57:35;1.80;;;1.77;;
4646;SDS011;2336;47.822;7.564;2023-01-04T06:00:02;1.63;;;1.63;;
4646;SDS011;2336;47.822;7.564;2023-01-04T06:02:32;1.50;;;1.40;;
4646;SDS011;2336;47.822;7.564;2023-01-04T06:04:58;2.50;;;2.40;;
4646;SDS011;2336;47.822;7.564;2023-01-04T06:07:25;1.53;;;1.30;;
4646;SDS011;2336;47.822;7.564;2023-01-04T06:09:52;1.30;;;1.30;;
4646;SDS011;2336;47.822;7.564;2023-01-04T06:12:19;1.17;;;1.17;;
4646;SDS011;2336;47.822;7.564;2023-01-04T06:14:46;1.00;;;0.83;;
4646;SDS011;2336;47.822;7.564;2023-01-04T06:17:13;1.63;;;0.93;;
4646;SDS011;2336;47.822;7.564;2023-01-04T06:19:42;0.70;;;0.70;;
4646;SDS011;2336;47.822;7.564;2023-01-04T06:22:08;1.07;;;0.70;;
4646;SDS011;2336;47.822;7.564;2023-01-04T06:24:35;3.40;;;3.20;;
4646;SDS011;2336;47.822;7.564;2023-01-04T06:27:02;2.10;;;2.00;;
4646;SDS011;2336;47.822;7.564;2023-01-04T06:29:29;2.50;;;2.40;;
4646;SDS011;2336;47.822;7.564;2023-01-04T06:31:56;1.10;;;1.10;;
4646;SDS011;2336;47.822;7.564;2023-01-04T06:34:23;1.90;;;1.80;;
4646;SDS011;2336;47.822;7.564;2023-01-04T06:36:51;1.40;;;1.40;;
4646;SDS011;2336;47.822;7.564;2023-01-04T06:39:17;3.03;;;0.90;;
4646;SDS011;2336;47.822;7.564;2023-01-04T06:41:44;1.37;;;0.70;;
4646;SDS011;2336;47.822;7.564;2023-01-04T06:44:11;0.63;;;0.63;;
4646;SDS011;2336;47.822;7.564;2023-01-04T06:46:38;0.60;;;0.60;;
4646;SDS011;2336;47.822;7.564;2023-01-04T06:49:05;0.60;;;0.60;;
4646;SDS011;2336;47.822;7.564;2023-01-04T06:51:32;1.67;;;0.80;;
4646;SDS011;2336;47.822;7.564;2023-01-04T06:54:00;0.77;;;0.77;;
4646;SDS011;2336;47.822;7.564;2023-01-04T06:56:27;0.93;;;0.70;;
4646;SDS011;2336;47.822;7.564;2023-01-04T06:58:55;1.00;;;0.90;;
4646;SDS011;2336;47.822;7.564;2023-01-04T07:01:21;1.80;;;1.70;;
4646;SDS011;2336;47.822;7.564;2023-01-04T07:03:48;6.20;;;5.73;;
4646;SDS011;2336;47.822;7.564;2023-01-04T07:06:15;1.17;;;1.10;;
4646;SDS011;2336;47.822;7.564;2023-01-04T07:08:41;1.00;;;1.00;;
4646;SDS011;2336;47.822;7.564;2023-01-04T07:11:10;0.80;;;0.80;;
4646;SDS011;2336;47.822;7.564;2023-01-04T07:13:36;1.10;;;1.10;;
4646;SDS011;2336;47.822;7.564;2023-01-04T07:16:03;1.00;;;1.00;;
4646;SDS011;2336;47.822;7.564;2023-01-04T07:18:30;0.83;;;0.83;;
4646;SDS011;2336;47.822;7.564;2023-01-04T07:20:57;1.50;;;1.00;;
4646;SDS011;2336;47.822;7.564;2023-01-04T07:23:24;0.60;;;0.60;;
4646;SDS011;2336;47.822;7.564;2023-01-04T07:25:51;1.10;;;1.00;;
4646;SDS011;2336;47.822;7.564;2023-01-04T07:28:19;3.33;;;2.30;;
4646;SDS011;2336;47.822;7.564;2023-01-04T07:31:03;1.20;;;1.20;;
4646;SDS011;2336;47.822;7.564;2023-01-04T07:33:31;0.93;;;0.93;;
4646;SDS011;2336;47.822;7.564;2023-01-04T07:36:00;1.73;;;1.63;;
4646;SDS011;2336;47.822;7.564;2023-01-04T07:38:28;0.90;;;0.90;;
4646;SDS011;2336;47.822;7.564;2023-01-04T07:40:55;1.13;;;0.90;;
4646;SDS011;2336;47.822;7.564;2023-01-04T07:43:23;1.00;;;1.00;;
4646;SDS011;2336;47.822;7.564;2023-01-04T07:45:50;1.13;;;1.03;;
4646;SDS011;2336;47.822;7.564;2023-01-04T07:48:17;1.27;;;1.20;;
4646;SDS011;2336;47.822;7.564;2023-01-04T07:50:44;1.50;;;1.30;;
4646;SDS011;2336;47.822;7.564;2023-01-04T07:53:11;1.60;;;1.50;;
4646;SDS011;2336;47.822;7.564;2023-01-04T07:55:38;1.10;;;1.00;;
4646;SDS011;2336;47.822;7.564;2023-01-04T07:58:05;1.97;;;1.80;;
4646;SDS011;2336;47.822;7.564;2023-01-04T08:00:33;1.40;;;1.40;;
4646;SDS011;2336;47.822;7.564;2023-01-04T08:03:00;2.00;;;1.90;;
4646;SDS011;2336;47.822;7.564;2023-01-04T08:05:27;1.73;;;1.43;;
4646;SDS011;2336;47.822;7.564;2023-01-04T08:07:56;1.20;;;1.20;;
4646;SDS011;2336;47.822;7.564;2023-01-04T08:10:23;1.00;;;1.00;;
4646;SDS011;2336;47.822;7.564;2023-01-04T08:12:50;1.43;;;1.43;;
4646;SDS011;2336;47.822;7.564;2023-01-04T08:15:17;1.63;;;1.50;;
4646;SDS011;2336;47.822;7.564;2023-01-04T08:17:45;0.80;;;0.80;;
4646;SDS011;2336;47.822;7.564;2023-01-04T08:20:11;1.03;;;1.03;;
4646;SDS011;2336;47.822;7.564;2023-01-04T08:22:38;3.03;;;1.00;;
4646;SDS011;2336;47.822;7.564;2023-01-04T08:25:05;0.90;;;0.90;;
4646;SDS011;2336;47.822;7.564;2023-01-04T08:27:32;1.07;;;1.07;;
4646;SDS011;2336;47.822;7.564;2023-01-04T08:29:59;4.00;;;1.30;;
4646;SDS011;2336;47.822;7.564;2023-01-04T08:32:26;2.40;;;1.20;;
4646;SDS011;2336;47.822;7.564;2023-01-04T08:34:54;0.90;;;0.90;;
4646;SDS011;2336;47.822;7.564;2023-01-04T08:37:21;0.97;;;0.97;;
4646;SDS011;2336;47.822;7.564;2023-01-04T08:39:48;1.20;;;1.10;;
4646;SDS011;2336;47.822;7.564;2023-01-04T08:42:15;2.40;;;1.90;;
4646;SDS011;2336;47.822;7.564;2023-01-04T08:44:42;2.93;;;1.30;;
4646;SDS011;2336;47.822;7.564;2023-01-04T08:47:08;3.50;;;1.50;;
4646;SDS011;2336;47.822;7.564;2023-01-04T08:49:35;1.50;;;1.40;;
4646;SDS011;2336;47.822;7.564;2023-01-04T08:52:03;1.40;;;1.30;;
4646;SDS011;2336;47.822;7.564;2023-01-04T08:54:31;2.87;;;1.40;;
4646;SDS011;2336;47.822;7.564;2023-01-04T08:56:58;1.43;;;1.43;;
4646;SDS011;2336;47.822;7.564;2023-01-04T08:59:24;2.67;;;1.73;;
4646;SDS011;2336;47.822;7.564;2023-01-04T09:01:51;2.17;;;1.70;;
4646;SDS011;2336;47.822;7.564;2023-01-04T09:04:18;2.80;;;2.20;;
4646;SDS011;2336;47.822;7.564;2023-01-04T09:06:45;3.80;;;1.80;;
4646;SDS011;2336;47.822;7.564;2023-01-04T09:09:13;2.53;;;2.43;;
4646;SDS011;2336;47.822;7.564;2023-01-04T09:11:40;6.70;;;2.40;;
4646;SDS011;2336;47.822;7.564;2023-01-04T09:14:07;1.93;;;1.93;;
4646;SDS011;2336;47.822;7.564;2023-01-04T09:16:35;2.30;;;2.20;;
4646;SDS011;2336;47.822;7.564;2023-01-04T09:19:02;1.90;;;1.90;;
4646;SDS011;2336;47.822;7.564;2023-01-04T09:21:30;4.40;;;2.20;;
4646;SDS011;2336;47.822;7.564;2023-01-04T09:23:57;2.10;;;2.03;;
4646;SDS011;2336;47.822;7.564;2023-01-04T09:26:25;2.93;;;2.73;;
4646;SDS011;2336;47.822;7.564;2023-01-04T09:28:53;3.03;;;2.83;;
4646;SDS011;2336;47.822;7.564;2023-01-04T09:31:22;2.70;;;2.60;;
4646;SDS011;2336;47.822;7.564;2023-01-04T09:33:50;2.53;;;2.43;;
4646;SDS011;2336;47.822;7.564;2023-01-04T09:36:17;3.13;;;2.83;;
4646;SDS011;2336;47.822;7.564;2023-01-04T09:38:45;3.23;;;3.03;;
4646;SDS011;2336;47.822;7.564;2023-01-04T09:41:18;3.87;;;2.70;;
4646;SDS011;2336;47.822;7.564;2023-01-04T09:43:51;2.47;;;2.37;;
4646;SDS011;2336;47.822;7.564;2023-01-04T09:46:23;6.63;;;3.10;;
4646;SDS011;2336;47.822;7.564;2023-01-04T09:49:02;5.77;;;3.00;;
4646;SDS011;2336;47.822;7.564;2023-01-04T09:51:39;8.43;;;2.70;;
4646;SDS011;2336;47.822;7.564;2023-01-04T09:54:10;2.60;;;2.40;;
4646;SDS011;2336;47.822;7.564;2023-01-04T09:56:43;2.30;;;2.20;;
4646;SDS011;2336;47.822;7.564;2023-01-04T09:59:19;2.50;;;2.40;;
4646;SDS011;2336;47.822;7.564;2023-01-04T10:01:53;2.43;;;2.23;;
4646;SDS011;2336;47.822;7.564;2023-01-04T10:04:25;2.67;;;2.47;;
4646;SDS011;2336;47.822;7.564;2023-01-04T10:06:58;3.13;;;2.37;;
4646;SDS011;2336;47.822;7.564;2023-01-04T10:09:27;2.63;;;2.43;;
4646;SDS011;2336;47.822;7.564;2023-01-04T10:11:58;2.73;;;2.60;;
4646;SDS011;2336;47.822;7.564;2023-01-04T10:14:42;3.77;;;2.23;;
4646;SDS011;2336;47.822;7.564;2023-01-04T10:17:19;2.20;;;1.50;;
4646;SDS011;2336;47.822;7.564;2023-01-04T10:20:07;1.67;;;1.60;;
4646;SDS011;2336;47.822;7.564;2023-01-04T10:22:58;1.20;;;1.10;;
4646;SDS011;2336;47.822;7.564;2023-01-04T10:25:34;1.10;;;1.10;;
4646;SDS011;2336;47.822;7.564;2023-01-04T10:28:11;2.00;;;1.30;;
4646;SDS011;2336;47.822;7.564;2023-01-04T10:30:52;1.63;;;1.53;;
4646;SDS011;2336;47.822;7.564;2023-01-04T10:33:29;1.40;;;1.33;;
4646;SDS011;2336;47.822;7.564;2023-01-04T10:36:09;1.23;;;1.13;;
4646;SDS011;2336;47.822;7.564;2023-01-04T10:38:42;1.20;;;1.20;;
4646;SDS011;2336;47.822;7.564;2023-01-04T10:41:09;1.70;;;1.57;;
4646;SDS011;2336;47.822;7.564;2023-01-04T10:43:44;1.40;;;1.40;;
4646;SDS011;2336;47.822;7.564;2023-01-04T10:46:19;1.43;;;1.33;;
4646;SDS011;2336;47.822;7.564;2023-01-04T10:48:50;1.90;;;1.40;;
4646;SDS011;2336;47.822;7.564;2023-01-04T10:51:25;2.10;;;1.87;;
4646;SDS011;2336;47.822;7.564;2023-01-04T10:53:57;1.40;;;1.30;;
4646;SDS011;2336;47.822;7.564;2023-01-04T10:56:30;1.70;;;1.60;;
4646;SDS011;2336;47.822;7.564;2023-01-04T10:59:04;1.40;;;1.30;;
4646;SDS011;2336;47.822;7.564;2023-01-04T11:01:38;1.60;;;1.50;;
4646;SDS011;2336;47.822;7.564;2023-01-04T11:04:10;1.40;;;1.40;;
4646;SDS011;2336;47.822;7.564;2023-01-04T11:06:43;1.70;;;1.60;;
4646;SDS011;2336;47.822;7.564;2023-01-04T11:09:14;8.77;;;7.40;;
4646;SDS011;2336;47.822;7.564;2023-01-04T11:11:44;5.83;;;4.10;;
4646;SDS011;2336;47.822;7.564;2023-01-04T11:14:12;5.27;;;3.60;;
4646;SDS011;2336;47.822;7.564;2023-01-04T11:16:42;1.57;;;1.57;;
4646;SDS011;2336;47.822;7.564;2023-01-04T11:19:11;2.43;;;2.23;;
4646;SDS011;2336;47.822;7.564;2023-01-04T11:21:38;1.53;;;1.43;;
4646;SDS011;2336;47.822;7.564;2023-01-04T11:24:10;3.20;;;1.43;;
4646;SDS011;2336;47.822;7.564;2023-01-04T11:26:38;1.80;;;1.73;;
4646;SDS011;2336;47.822;7.564;2023-01-04T11:29:12;1.73;;;1.63;;
4646;SDS011;2336;47.822;7.564;2023-01-04T11:31:52;1.63;;;1.53;;
4646;SDS011;2336;47.822;7.564;2023-01-04T11:37:24;1.60;;;1.50;;
4646;SDS011;2336;47.822;7.564;2023-01-04T11:40:17;1.90;;;1.80;;
4646;SDS011;2336;47.822;7.564;2023-01-04T11:42:48;2.03;;;1.93;;
4646;SDS011;2336;47.822;7.564;2023-01-04T11:45:17;1.60;;;1.50;;
4646;SDS011;2336;47.822;7.564;2023-01-04T11:47:48;1.90;;;1.80;;
4646;SDS011;2336;47.822;7.564;2023-01-04T11:50:33;1.87;;;1.77;;
4646;SDS011;2336;47.822;7.564;2023-01-04T11:53:20;1.50;;;1.40;;
4646;SDS011;2336;47.822;7.564;2023-01-04T11:55:49;5.30;;;4.90;;
4646;SDS011;2336;47.822;7.564;2023-01-04T11:58:16;2.43;;;2.33;;
4646;SDS011;2336;47.822;7.564;2023-01-04T12:00:54;2.30;;;2.20;;
4646;SDS011;2336;47.822;7.564;2023-01-04T12:03:23;2.87;;;2.63;;
4646;SDS011;2336;47.822;7.564;2023-01-04T12:05:52;1.90;;;1.80;;
4646;SDS011;2336;47.822;7.564;2023-01-04T12:08:24;1.00;;;1.00;;
4646;SDS011;2336;47.822;7.564;2023-01-04T12:10:54;2.00;;;1.90;;
4646;SDS011;2336;47.822;7.564;2023-01-04T12:13:21;5.60;;;2.00;;
4646;SDS011;2336;47.822;7.564;2023-01-04T12:15:52;2.10;;;2.00;;
4646;SDS011;2336;47.822;7.564;2023-01-04T12:18:29;1.30;;;1.30;;
4646;SDS011;2336;47.822;7.564;2023-01-04T12:21:01;2.20;;;1.40;;
4646;SDS011;2336;47.822;7.564;2023-01-04T12:23:28;1.10;;;1.00;;
4646;SDS011;2336;47.822;7.564;2023-01-04T12:25:56;1.60;;;1.40;;
4646;SDS011;2336;47.822;7.564;2023-01-04T12:28:27;6.40;;;1.50;;
4646;SDS011;2336;47.822;7.564;2023-01-04T12:30:55;2.60;;;1.00;;
4646;SDS011;2336;47.822;7.564;2023-01-04T12:37:07;1.50;;;1.40;;
4646;SDS011;2336;47.822;7.564;2023-01-04T12:39:36;1.33;;;1.23;;
4646;SDS011;2336;47.822;7.564;2023-01-04T12:42:08;2.20;;;1.00;;
4646;SDS011;2336;47.822;7.564;2023-01-04T12:47:43;1.53;;;1.27;;
4646;SDS011;2336;47.822;7.564;2023-01-04T12:50:29;2.50;;;1.20;;
4646;SDS011;2336;47.822;7.564;2023-01-04T12:53:00;1.30;;;1.20;;
4646;SDS011;2336;47.822;7.564;2023-01-04T12:58:39;2.23;;;2.13;;
4646;SDS011;2336;47.822;7.564;2023-01-04T13:01:30;2.73;;;2.60;;
4646;SDS011;2336;47.822;7.564;2023-01-04T13:03:57;3.57;;;2.87;;
4646;SDS011;2336;47.822;7.564;2023-01-04T13:06:28;4.60;;;3.23;;
4646;SDS011;2336;47.822;7.564;2023-01-04T13:08:59;1.53;;;1.30;;
4646;SDS011;2336;47.822;7.564;2023-01-04T13:11:32;1.60;;;1.50;;
4646;SDS011;2336;47.822;7.564;2023-01-04T13:14:10;2.00;;;1.90;;
4646;SDS011;2336;47.822;7.564;2023-01-04T13:16:46;1.70;;;1.43;;
4646;SDS011;2336;47.822;7.564;2023-01-04T13:19:19;5.13;;;2.20;;
4646;SDS011;2336;47.822;7.564;2023-01-04T13:21:50;4.00;;;3.80;;
4646;SDS011;2336;47.822;7.564;2023-01-04T13:24:20;1.83;;;1.73;;
4646;SDS011;2336;47.822;7.564;2023-01-04T13:26:49;2.27;;;2.17;;
4646;SDS011;2336;47.822;7.564;2023-01-04T13:29:18;3.00;;;2.83;;
4646;SDS011;2336;47.822;7.564;2023-01-04T13:31:49;3.47;;;3.27;;
4646;SDS011;2336;47.822;7.564;2023-01-04T13:34:18;2.90;;;2.70;;
4646;SDS011;2336;47.822;7.564;2023-01-04T13:39:51;1.70;;;1.60;;
4646;SDS011;2336;47.822;7.564;2023-01-04T13:42:27;2.90;;;1.90;;
4646;SDS011;2336;47.822;7.564;2023-01-04T13:47:50;1.20;;;1.20;;
4646;SDS011;2336;47.822;7.564;2023-01-04T13:50:27;2.37;;;1.53;;
4646;SDS011;2336;47.822;7.564;2023-01-04T13:52:58;1.53;;;1.40;;
4646;SDS011;2336;47.822;7.564;2023-01-04T13:55:26;1.53;;;0.90;;
4646;SDS011;2336;47.822;7.564;2023-01-04T13:57:55;1.13;;;1.13;;
4646;SDS011;2336;47.822;7.564;2023-01-04T14:00:23;1.50;;;1.40;;
4646;SDS011;2336;47.822;7.564;2023-01-04T14:05:49;1.17;;;1.17;;
4646;SDS011;2336;47.822;7.564;2023-01-04T14:08:22;2.30;;;2.20;;
4646;SDS011;2336;47.822;7.564;2023-01-04T14:10:54;1.23;;;1.13;;
4646;SDS011;2336;47.822;7.564;2023-01-04T14:13:21;1.07;;;1.07;;
4646;SDS011;2336;47.822;7.564;2023-01-04T14:16:01;1.10;;;1.00;;
4646;SDS011;2336;47.822;7.564;2023-01-04T14:18:30;0.80;;;0.80;;
4646;SDS011;2336;47.822;7.564;2023-01-04T14:20:57;2.60;;;1.10;;
4646;SDS011;2336;47.822;7.564;2023-01-04T14:23:27;1.57;;;1.07;;
4646;SDS011;2336;47.822;7.564;2023-01-04T14:25:57;3.70;;;1.30;;
4646;SDS011;2336;47.822;7.564;2023-01-04T14:28:32;1.33;;;1.23;;
4646;SDS011;2336;47.822;7.564;2023-01-04T14:31:13;0.80;;;0.80;;
4646;SDS011;2336;47.822;7.564;2023-01-04T14:33:46;1.20;;;1.10;;
4646;SDS011;2336;47.822;7.564;2023-01-04T14:36:17;1.80;;;1.13;;
4646;SDS011;2336;47.822;7.564;2023-01-04T14:38:49;3.03;;;0.90;;
4646;SDS011;2336;47.822;7.564;2023-01-04T14:41:25;1.10;;;1.10;;
4646;SDS011;2336;47.822;7.564;2023-01-04T14:44:04;3.10;;;1.60;;
4646;SDS011;2336;47.822;7.564;2023-01-04T14:46:35;0.90;;;0.90;;
4646;SDS011;2336;47.822;7.564;2023-01-04T14:49:02;1.23;;;1.00;;
4646;SDS011;2336;47.822;7.564;2023-01-04T14:51:30;3.10;;;3.00;;
4646;SDS011;2336;47.822;7.564;2023-01-04T14:54:00;1.70;;;1.70;;
4646;SDS011;2336;47.822;7.564;2023-01-04T14:56:27;5.03;;;3.47;;
4646;SDS011;2336;47.822;7.564;2023-01-04T14:58:54;3.17;;;2.93;;
4646;SDS011;2336;47.822;7.564;2023-01-04T15:01:21;1.40;;;1.30;;
4646;SDS011;2336;47.822;7.564;2023-01-04T15:03:48;4.67;;;1.33;;
4646;SDS011;2336;47.822;7.564;2023-01-04T15:06:15;1.90;;;1.73;;
4646;SDS011;2336;47.822;7.564;2023-01-04T15:08:41;1.27;;;1.23;;
4646;SDS011;2336;47.822;7.564;2023-01-04T15:11:10;1.63;;;1.20;;
4646;SDS011;2336;47.822;7.564;2023-01-04T15:13:38;1.47;;;1.00;;
4646;SDS011;2336;47.822;7.564;2023-01-04T15:16:05;4.20;;;3.90;;
4646;SDS011;2336;47.822;7.564;2023-01-04T15:18:34;11.40;;;9.67;;
4646;SDS011;2336;47.822;7.564;2023-01-04T15:21:01;1.40;;;1.30;;
4646;SDS011;2336;47.822;7.564;2023-01-04T15:23:28;2.00;;;1.77;;
4646;SDS011;2336;47.822;7.564;2023-01-04T15:25:55;6.97;;;6.37;;
4646;SDS011;2336;47.822;7.564;2023-01-04T15:28:24;1.20;;;1.10;;
4646;SDS011;2336;47.822;7.564;2023-01-04T15:30:51;1.00;;;1.00;;
4646;SDS011;2336;47.822;7.564;2023-01-04T15:33:18;2.30;;;1.20;;
4646;SDS011;2336;47.822;7.564;2023-01-04T15:35:44;1.07;;;0.90;;
4646;SDS011;2336;47.822;7.564;2023-01-04T15:38:11;1.57;;;1.23;;
4646;SDS011;2336;47.822;7.564;2023-01-04T15:40:39;1.13;;;1.13;;
4646;SDS011;2336;47.822;7.564;2023-01-04T15:43:06;1.10;;;1.00;;
4646;SDS011;2336;47.822;7.564;2023-01-04T15:45:36;2.13;;;1.93;;
4646;SDS011;2336;47.822;7.564;2023-01-04T15:48:05;1.83;;;1.73;;
4646;SDS011;2336;47.822;7.564;2023-01-04T15:50:35;2.10;;;1.13;;
4646;SDS011;2336;47.822;7.564;2023-01-04T15:53:03;1.37;;;0.70;;
4646;SDS011;2336;47.822;7.564;2023-01-04T15:55:30;4.00;;;1.00;;